Time;durP1;ratioP1;P1;durP2;ratioP2;P2;SDS_P1;SDS_P2;PMS_P1;PMS_P2;Temp;Humidity;BMP_temperature;BMP_pressure;BME280_temperature;BME280_humidity;BME280_pressure;Samples;Min_cycle;Max_cycle;Signal;HPM_P1;HPM_P2
2020/12/10 00:00:45;;;;;;;106.97;36.20;;;2.10;93.50;;;;;;5007300;28;20052;-53
2020/12/10 00:03:31;;;;;;;92.78;34.95;;;2.10;93.50;;;;;;5002776;28;20088;-54
2020/12/10 00:05:56;;;;;;;90.00;35.17;;;2.10;93.50;;;;;;5022626;28;20556;-54
2020/12/10 00:08:42;;;;;;;96.20;34.38;;;2.20;93.30;;;;;;5004820;28;20038;-53
2020/12/10 00:11:09;;;;;;;96.78;34.65;;;2.10;93.30;;;;;;5007159;28;20066;-52
2020/12/10 00:13:35;;;;;;;111.35;39.45;;;2.10;93.40;;;;;;5025476;28;20508;-53
2020/12/10 00:16:01;;;;;;;97.75;36.25;;;2.10;93.40;;;;;;5017713;28;20052;-53
2020/12/10 00:18:47;;;;;;;105.93;37.47;;;2.20;93.40;;;;;;5013630;28;20057;-52
2020/12/10 00:21:18;;;;;;;103.72;35.20;;;2.20;93.20;;;;;;5027716;28;20034;-53
2020/12/10 00:23:44;;;;;;;94.30;35.40;;;2.20;93.30;;;;;;5020515;28;20040;-53
2020/12/10 00:26:30;;;;;;;96.18;35.50;;;2.40;93.20;;;;;;5019053;28;20053;-53
2020/12/10 00:29:16;;;;;;;109.97;37.20;;;2.20;93.30;;;;;;5012236;28;20042;-51
2020/12/10 00:31:42;;;;;;;108.50;38.28;;;2.20;93.30;;;;;;5028748;28;20045;-52
2020/12/10 00:34:08;;;;;;;109.43;37.63;;;2.10;93.40;;;;;;5019311;28;20037;-50
2020/12/10 00:36:34;;;;;;;101.50;36.00;;;2.10;93.50;;;;;;5020276;28;20092;-53
2020/12/10 00:39:00;;;;;;;100.70;36.60;;;2.10;93.70;;;;;;5032498;28;20045;-49
2020/12/10 00:41:45;;;;;;;108.15;36.53;;;2.10;93.60;;;;;;5012783;28;20068;-50
2020/12/10 00:44:32;;;;;;;106.53;36.80;;;2.10;93.40;;;;;;5008829;28;20053;-49
2020/12/10 00:47:19;;;;;;;101.35;34.97;;;2.10;93.60;;;;;;5003090;28;20042;-50
2020/12/10 00:49:45;;;;;;;105.63;36.60;;;2.10;93.60;;;;;;5028988;28;20099;-53
2020/12/10 00:52:12;;;;;;;100.82;36.70;;;2.10;93.50;;;;;;5017220;28;20053;-50
2020/12/10 00:54:39;;;;;;;96.35;35.22;;;2.20;93.40;;;;;;5040044;28;20488;-53
2020/12/10 00:57:25;;;;;;;100.43;35.13;;;2.20;93.40;;;;;;5004484;28;20087;-51
2020/12/10 00:59:51;;;;;;;119.75;37.78;;;2.20;93.40;;;;;;5019983;28;20029;-50
2020/12/10 01:02:17;;;;;;;119.15;35.30;;;2.10;93.50;;;;;;5026802;28;20050;-50
2020/12/10 01:04:42;;;;;;;95.53;34.13;;;2.10;93.50;;;;;;5018877;28;20399;-53
2020/12/10 01:07:28;;;;;;;103.00;35.58;;;2.20;93.40;;;;;;5012853;28;20072;-50
2020/12/10 01:09:55;;;;;;;91.28;32.85;;;2.10;93.40;;;;;;5018143;28;20080;-50
2020/12/10 01:12:22;;;;;;;101.13;33.13;;;2.10;93.70;;;;;;5020805;28;20061;-51
2020/12/10 01:14:48;;;;;;;84.75;32.17;;;2.20;93.50;;;;;;5026829;28;20038;-53
2020/12/10 01:17:14;;;;;;;91.55;30.67;;;2.10;93.50;;;;;;5008580;28;20077;-50
2020/12/10 01:19:40;;;;;;;84.53;31.65;;;2.10;93.40;;;;;;5024327;28;20049;-50
2020/12/10 01:22:05;;;;;;;88.55;30.70;;;2.10;93.50;;;;;;5027424;28;20087;-49
2020/12/10 01:24:31;;;;;;;107.45;30.48;;;2.10;93.60;;;;;;5015464;28;20053;-49
2020/12/10 01:26:56;;;;;;;81.20;27.80;;;2.10;93.50;;;;;;5015771;28;20577;-51
2020/12/10 01:29:42;;;;;;;98.03;30.83;;;2.20;93.30;;;;;;4996927;28;20046;-52
2020/12/10 01:32:08;;;;;;;97.28;30.75;;;2.10;93.50;;;;;;5027117;28;20125;-50
2020/12/10 01:34:33;;;;;;;120.05;30.20;;;2.10;93.50;;;;;;5020276;28;20041;-49
2020/12/10 01:36:59;;;;;;;86.55;27.67;;;2.10;93.60;;;;;;5022656;28;20042;-49
2020/12/10 01:39:45;;;;;;;115.45;29.73;;;2.10;93.60;;;;;;5003510;28;20038;-53
2020/12/10 01:42:11;;;;;;;105.63;32.30;;;2.00;93.70;;;;;;5032127;28;20482;-49
2020/12/10 01:44:37;;;;;;;92.35;28.95;;;2.10;93.80;;;;;;4994004;28;20042;-49
2020/12/10 01:47:04;;;;;;;94.15;28.63;;;2.10;93.90;;;;;;5022269;28;20422;-50
2020/12/10 01:49:50;;;;;;;127.47;30.67;;;2.00;93.90;;;;;;4990094;28;20053;-49
2020/12/10 01:52:17;;;;;;;123.05;29.67;;;2.10;93.80;;;;;;5015382;28;20049;-50
2020/12/10 01:54:43;;;;;;;88.20;28.45;;;2.10;93.80;;;;;;5025309;28;20053;-49
2020/12/10 01:57:09;;;;;;;183.10;33.05;;;2.00;93.90;;;;;;5023284;28;20064;-49
2020/12/10 01:59:55;;;;;;;68.28;26.92;;;2.00;93.90;;;;;;5006797;28;20072;-53
2020/12/10 02:02:41;;;;;;;95.05;28.63;;;2.00;94.00;;;;;;5012419;28;20053;-49
2020/12/10 02:05:06;;;;;;;123.10;30.77;;;2.00;93.90;;;;;;5022895;28;20045;-49
2020/12/10 02:07:32;;;;;;;107.60;29.80;;;2.00;93.90;;;;;;5013919;28;20145;-50
2020/12/10 02:10:18;;;;;;;116.15;30.60;;;2.00;94.00;;;;;;5012940;28;20045;-52
2020/12/10 02:12:45;;;;;;;126.78;29.33;;;2.00;94.00;;;;;;5014391;28;20061;-49
2020/12/10 02:15:11;;;;;;;110.97;30.40;;;2.00;94.00;;;;;;5017952;28;20052;-53
2020/12/10 02:17:58;;;;;;;100.45;29.52;;;2.10;93.80;;;;;;5007027;28;20045;-50
2020/12/10 02:20:23;;;;;;;111.22;30.23;;;2.00;93.80;;;;;;5008017;28;20052;-54
2020/12/10 02:22:57;;;;;;;96.35;28.17;;;2.00;93.70;;;;;;5020206;28;20755;-52
2020/12/10 02:25:42;;;;;;;93.20;27.80;;;2.00;93.90;;;;;;5013414;28;20050;-51
2020/12/10 02:28:13;;;;;;;92.03;28.75;;;2.10;93.80;;;;;;5021031;28;20390;-53
2020/12/10 02:30:42;;;;;;;98.80;29.77;;;2.00;93.70;;;;;;5025353;28;20042;-53
2020/12/10 02:33:10;;;;;;;97.75;31.42;;;2.00;93.90;;;;;;5023815;28;20046;-53
2020/12/10 02:35:37;;;;;;;102.00;29.02;;;1.90;94.00;;;;;;5029095;28;20045;-52
2020/12/10 02:38:04;;;;;;;97.85;30.70;;;1.90;94.10;;;;;;5019432;28;20041;-53
2020/12/10 02:40:50;;;;;;;87.20;30.25;;;1.90;94.00;;;;;;5002379;28;20061;-53
2020/12/10 02:43:36;;;;;;;124.40;31.30;;;1.90;94.10;;;;;;4988081;28;20045;-52
2020/12/10 02:46:22;;;;;;;70.97;26.60;;;1.90;94.20;;;;;;5002714;28;20057;-53
2020/12/10 02:49:07;;;;;;;77.15;26.80;;;1.90;94.00;;;;;;5008531;28;20164;-52
2020/12/10 02:51:33;;;;;;;92.70;27.42;;;1.90;94.00;;;;;;5016102;28;20196;-53
2020/12/10 02:53:59;;;;;;;80.80;28.05;;;1.90;93.90;;;;;;5014088;28;20052;-52
2020/12/10 02:56:25;;;;;;;80.97;28.38;;;1.90;93.80;;;;;;5007106;28;20045;-52
2020/12/10 02:59:11;;;;;;;87.90;27.80;;;1.90;93.80;;;;;;5002175;28;20050;-53
2020/12/10 03:01:57;;;;;;;82.00;28.75;;;1.80;94.00;;;;;;5011987;28;20486;-52
2020/12/10 03:04:23;;;;;;;80.93;28.42;;;1.90;94.10;;;;;;5025159;28;20049;-53
2020/12/10 03:06:49;;;;;;;80.70;26.90;;;1.90;94.10;;;;;;5017024;28;20041;-52
2020/12/10 03:09:15;;;;;;;90.10;28.15;;;2.00;94.00;;;;;;5015559;28;20076;-53
2020/12/10 03:12:01;;;;;;;76.85;27.80;;;1.90;94.00;;;;;;4996205;28;20054;-54
2020/12/10 03:14:48;;;;;;;77.00;26.95;;;1.90;94.00;;;;;;4999148;28;20061;-54
2020/12/10 03:17:14;;;;;;;71.75;25.92;;;2.00;93.80;;;;;;5017833;28;20045;-50
2020/12/10 03:19:40;;;;;;;76.03;25.60;;;1.90;93.90;;;;;;5019531;28;20141;-53
2020/12/10 03:22:11;;;;;;;75.30;27.02;;;1.90;94.10;;;;;;5016346;28;20128;-51
2020/12/10 03:24:37;;;;;;;73.70;27.33;;;1.90;94.00;;;;;;5023946;28;20046;-52
2020/12/10 03:27:22;;;;;;;86.45;27.75;;;1.90;94.10;;;;;;4999397;28;20096;-54
2020/12/10 03:29:49;;;;;;;67.57;25.38;;;2.00;93.90;;;;;;5017055;28;20037;-53
2020/12/10 03:32:39;;;;;;;92.47;27.85;;;2.00;93.90;;;;;;5010465;28;20049;-52
2020/12/10 03:35:05;;;;;;;117.93;29.77;;;2.00;93.90;;;;;;5031813;28;20109;-50
2020/12/10 03:37:51;;;;;;;95.25;27.30;;;2.00;93.90;;;;;;5012818;28;20056;-54
2020/12/10 03:40:18;;;;;;;102.32;29.95;;;2.00;94.20;;;;;;5025272;28;20045;-53
2020/12/10 03:42:44;;;;;;;110.18;29.45;;;2.00;94.20;;;;;;5013063;28;20689;-51
2020/12/10 03:45:29;;;;;;;92.88;29.67;;;2.00;94.30;;;;;;5006539;28;20045;-53
2020/12/10 03:47:55;;;;;;;89.78;29.15;;;2.00;94.20;;;;;;5019374;28;20045;-53
2020/12/10 03:50:22;;;;;;;104.50;30.83;;;2.00;94.20;;;;;;5031535;28;20050;-53
2020/12/10 03:52:48;;;;;;;122.45;30.33;;;2.00;94.30;;;;;;5019846;28;20475;-50
2020/12/10 03:55:15;;;;;;;100.07;30.23;;;2.10;94.20;;;;;;5021528;28;20050;-53
2020/12/10 03:57:42;;;;;;;104.88;30.85;;;2.10;94.10;;;;;;5005851;28;20144;-52
2020/12/10 04:00:08;;;;;;;93.57;31.65;;;2.10;94.10;;;;;;4998137;28;20125;-52
2020/12/10 04:02:34;;;;;;;96.38;31.38;;;2.10;94.20;;;;;;5022097;28;20041;-51
2020/12/10 04:05:00;;;;;;;109.72;33.72;;;2.10;94.30;;;;;;4998306;28;20426;-51
2020/12/10 04:07:26;;;;;;;109.55;34.67;;;2.10;94.20;;;;;;5026727;28;20033;-50
2020/12/10 04:09:51;;;;;;;95.25;31.88;;;2.10;94.20;;;;;;5015853;28;20137;-50
2020/12/10 04:12:17;;;;;;;103.53;30.67;;;2.20;94.10;;;;;;5027774;28;20084;-51
2020/12/10 04:14:43;;;;;;;97.85;31.27;;;2.10;94.20;;;;;;5016368;28;20054;-49
2020/12/10 04:17:09;;;;;;;109.28;32.53;;;2.20;94.00;;;;;;5019400;28;20047;-50
2020/12/10 04:19:34;;;;;;;110.18;33.85;;;2.20;94.30;;;;;;5020553;28;20092;-50
2020/12/10 04:22:01;;;;;;;92.05;31.60;;;2.20;94.00;;;;;;5024747;28;20312;-50
2020/12/10 04:24:26;;;;;;;89.65;32.00;;;2.30;94.00;;;;;;5029787;28;20145;-53
2020/12/10 04:26:52;;;;;;;94.45;32.60;;;2.30;94.00;;;;;;5026609;28;20065;-50
2020/12/10 04:29:38;;;;;;;105.80;34.25;;;2.20;94.00;;;;;;5005377;28;20034;-49
2020/12/10 04:32:04;;;;;;;109.25;34.35;;;2.20;94.00;;;;;;5020503;28;20068;-53
2020/12/10 04:34:49;;;;;;;107.20;34.58;;;2.20;94.00;;;;;;5010075;28;20042;-50
2020/12/10 04:37:15;;;;;;;94.03;32.78;;;2.20;94.10;;;;;;5027951;28;20091;-50
2020/12/10 04:39:41;;;;;;;106.07;34.78;;;2.20;94.00;;;;;;5025645;28;20030;-50
2020/12/10 04:42:09;;;;;;;110.18;34.78;;;2.30;93.90;;;;;;5029624;28;20064;-49
2020/12/10 04:44:35;;;;;;;99.95;32.63;;;2.30;93.90;;;;;;5009600;28;20042;-51
2020/12/10 04:47:01;;;;;;;92.35;32.15;;;2.20;94.00;;;;;;5020135;28;20040;-51
2020/12/10 04:49:48;;;;;;;106.88;33.03;;;2.30;93.90;;;;;;5002985;28;20410;-50
2020/12/10 04:52:14;;;;;;;97.25;32.47;;;2.20;94.00;;;;;;5024158;28;20037;-53
2020/12/10 04:54:40;;;;;;;105.82;34.03;;;2.20;94.00;;;;;;4982315;28;20052;-50
2020/12/10 04:57:10;;;;;;;92.90;32.17;;;2.30;94.00;;;;;;5002387;28;20041;-52
2020/12/10 04:59:36;;;;;;;94.53;31.10;;;2.30;94.00;;;;;;5019741;28;20043;-51
2020/12/10 05:02:07;;;;;;;98.13;31.70;;;2.30;93.90;;;;;;5016771;28;20125;-50
2020/12/10 05:04:33;;;;;;;101.68;32.85;;;2.30;93.80;;;;;;5024455;28;20417;-53
2020/12/10 05:06:59;;;;;;;101.70;31.75;;;2.30;93.90;;;;;;5015571;28;20034;-51
2020/12/10 05:10:05;;;;;;;92.90;31.92;;;2.20;93.90;;;;;;5013524;28;20490;-51
2020/12/10 05:12:32;;;;;;;107.82;33.58;;;2.30;93.90;;;;;;5022085;28;20054;-52
2020/12/10 05:14:59;;;;;;;98.70;31.70;;;2.30;93.80;;;;;;5026976;28;20049;-50
2020/12/10 05:17:45;;;;;;;96.40;31.75;;;2.30;93.60;;;;;;5005853;28;20096;-50
2020/12/10 05:20:52;;;;;;;113.00;35.15;;;2.30;93.60;;;;;;5011247;28;20046;-52
2020/12/10 05:23:39;;;;;;;100.18;34.67;;;2.30;93.90;;;;;;5001803;28;20053;-50
2020/12/10 05:26:06;;;;;;;97.97;34.00;;;2.30;93.60;;;;;;5014901;28;20042;-50
2020/12/10 05:28:46;;;;;;;95.18;35.22;;;2.30;93.50;;;;;;5020151;28;20069;-51
2020/12/10 05:31:36;;;;;;;108.40;35.53;;;2.30;93.60;;;;;;5009032;28;20041;-52
2020/12/10 05:34:02;;;;;;;92.78;34.60;;;2.30;93.50;;;;;;5014006;28;20048;-49
2020/12/10 05:36:29;;;;;;;95.97;34.88;;;2.30;93.20;;;;;;5019654;28;20045;-53
2020/12/10 05:39:08;;;;;;;108.35;37.42;;;2.30;93.30;;;;;;5013340;28;20041;-50
2020/12/10 05:41:44;;;;;;;106.28;37.55;;;2.30;93.40;;;;;;5014616;28;20053;-49
2020/12/10 05:44:18;;;;;;;106.72;36.55;;;2.30;93.40;;;;;;4998110;28;20086;-49
2020/12/10 05:46:45;;;;;;;113.57;38.80;;;2.20;93.40;;;;;;5018962;28;20037;-50
2020/12/10 05:49:13;;;;;;;111.97;38.50;;;2.20;93.70;;;;;;5009374;28;20452;-50
2020/12/10 05:51:48;;;;;;;108.18;38.33;;;2.30;93.40;;;;;;5016337;28;20038;-53
2020/12/10 05:54:18;;;;;;;108.38;37.83;;;2.30;93.20;;;;;;4998170;28;20550;-50
2020/12/10 05:57:05;;;;;;;104.50;37.10;;;2.20;93.30;;;;;;5010664;28;20091;-53
2020/12/10 05:59:33;;;;;;;106.43;36.00;;;2.20;93.40;;;;;;5028838;28;20057;-51
2020/12/10 06:02:06;;;;;;;108.15;36.95;;;2.20;93.40;;;;;;5009445;28;20034;-52
2020/12/10 06:04:32;;;;;;;101.70;37.03;;;2.30;92.90;;;;;;5015742;28;20121;-53
2020/12/10 06:07:18;;;;;;;103.70;37.80;;;2.40;93.10;;;;;;5005766;28;20057;-53
2020/12/10 06:09:44;;;;;;;105.10;37.33;;;2.30;93.00;;;;;;5019586;28;20041;-53
2020/12/10 06:12:29;;;;;;;103.50;37.22;;;2.30;92.90;;;;;;4997606;28;20461;-51
2020/12/10 06:15:00;;;;;;;103.55;34.75;;;2.30;93.00;;;;;;4993161;28;20046;-53
2020/12/10 06:17:26;;;;;;;105.75;37.92;;;2.30;92.90;;;;;;5015391;28;20042;-54
2020/12/10 06:20:34;;;;;;;100.55;36.33;;;2.30;92.70;;;;;;4989729;28;20048;-53
2020/12/10 06:23:19;;;;;;;98.20;35.47;;;2.20;93.00;;;;;;5013640;28;20074;-54
2020/12/10 06:25:44;;;;;;;103.38;36.22;;;2.10;93.20;;;;;;5012640;28;20175;-50
2020/12/10 06:28:16;;;;;;;101.45;36.92;;;2.10;93.40;;;;;;5019715;28;20073;-53
2020/12/10 06:30:42;;;;;;;109.30;38.25;;;2.20;93.00;;;;;;5030675;28;20041;-53
2020/12/10 06:33:35;;;;;;;105.93;36.42;;;2.20;92.90;;;;;;4996602;28;20049;-51
2020/12/10 06:36:22;;;;;;;105.95;37.65;;;2.20;92.90;;;;;;5006277;28;20054;-53
2020/12/10 06:39:08;;;;;;;110.50;35.38;;;2.10;93.00;;;;;;5007989;28;20073;-52
2020/12/10 06:42:00;;;;;;;100.90;35.88;;;2.10;93.20;;;;;;5019735;28;20069;-51
2020/12/10 06:44:46;;;;;;;104.55;35.38;;;2.10;93.00;;;;;;5006271;28;20049;-53
2020/12/10 06:47:12;;;;;;;99.95;35.55;;;2.10;92.90;;;;;;5017370;28;20041;-51
2020/12/10 06:49:38;;;;;;;104.93;36.08;;;2.10;93.00;;;;;;5017033;28;20045;-53
2020/12/10 06:52:18;;;;;;;104.88;35.90;;;2.10;92.90;;;;;;5013851;28;20038;-52
2020/12/10 06:55:05;;;;;;;101.15;33.63;;;2.10;92.80;;;;;;5004780;28;20055;-50
2020/12/10 06:58:03;;;;;;;97.30;32.47;;;2.20;92.60;;;;;;5015191;28;20089;-50
2020/12/10 07:00:43;;;;;;;98.60;34.03;;;2.20;92.40;;;;;;5006068;28;20448;-49
2020/12/10 07:03:27;;;;;;;97.20;35.25;;;2.10;92.60;;;;;;5017829;28;20512;-52
2020/12/10 07:05:53;;;;;;;107.68;35.78;;;2.10;92.40;;;;;;5014511;28;20049;-50
2020/12/10 07:08:20;;;;;;;101.15;34.70;;;2.10;92.50;;;;;;5018384;28;20041;-52
2020/12/10 07:10:51;;;;;;;112.93;37.42;;;2.10;92.90;;;;;;5015021;28;20038;-52
2020/12/10 07:13:30;;;;;;;114.18;37.20;;;2.00;92.70;;;;;;5003399;28;20571;-50
2020/12/10 07:15:55;;;;;;;120.72;37.92;;;1.90;92.80;;;;;;5009616;28;20376;-49
2020/12/10 07:18:22;;;;;;;108.25;36.03;;;1.90;93.00;;;;;;5018869;28;20440;-53
2020/12/10 07:21:10;;;;;;;123.68;39.05;;;1.90;93.20;;;;;;5002333;28;20045;-50
2020/12/10 07:23:35;;;;;;;130.98;41.35;;;1.90;93.10;;;;;;5014392;28;20042;-52
2020/12/10 07:26:01;;;;;;;120.60;40.53;;;1.90;93.00;;;;;;5018018;28;20103;-53
2020/12/10 07:28:28;;;;;;;130.70;41.30;;;1.90;93.00;;;;;;5018863;28;20117;-52
2020/12/10 07:30:54;;;;;;;134.55;41.88;;;2.10;93.10;;;;;;5016926;28;20410;-53
2020/12/10 07:33:22;;;;;;;126.05;42.45;;;1.90;93.20;;;;;;5011224;28;20052;-49
2020/12/10 07:36:08;;;;;;;123.45;39.33;;;1.90;93.40;;;;;;4998771;28;20371;-52
2020/12/10 07:38:34;;;;;;;120.55;38.67;;;1.80;93.40;;;;;;5014601;28;20037;-51
2020/12/10 07:41:20;;;;;;;98.35;35.88;;;1.90;93.10;;;;;;5003777;28;20088;-53
2020/12/10 07:43:51;;;;;;;109.82;37.45;;;1.80;93.10;;;;;;5010161;28;20065;-49
2020/12/10 07:46:18;;;;;;;116.30;38.37;;;1.80;93.10;;;;;;5011712;28;20042;-51
2020/12/10 07:48:48;;;;;;;120.72;39.47;;;1.80;93.10;;;;;;5017820;28;20045;-53
2020/12/10 07:51:19;;;;;;;110.07;37.95;;;1.80;93.20;;;;;;5011689;28;20045;-53
2020/12/10 07:53:44;;;;;;;119.95;39.88;;;1.90;93.30;;;;;;5018167;28;20057;-53
2020/12/10 07:56:25;;;;;;;115.50;38.45;;;1.80;93.20;;;;;;5010321;28;20421;-53
2020/12/10 07:59:10;;;;;;;117.93;40.60;;;1.80;93.30;;;;;;4997591;28;20096;-53
2020/12/10 08:01:57;;;;;;;124.82;45.95;;;1.90;93.20;;;;;;5002308;28;20045;-53
2020/12/10 08:04:23;;;;;;;128.07;43.47;;;1.90;93.00;;;;;;5022931;28;20100;-51
2020/12/10 08:06:50;;;;;;;123.45;42.28;;;1.80;92.80;;;;;;5022992;28;20041;-50
2020/12/10 08:09:36;;;;;;;123.72;42.65;;;1.90;93.00;;;;;;5005481;28;20143;-50
2020/12/10 08:12:25;;;;;;;121.47;42.10;;;1.90;93.00;;;;;;4996293;28;20052;-51
2020/12/10 08:14:52;;;;;;;113.10;41.97;;;1.90;92.90;;;;;;5017852;28;20045;-49
2020/12/10 08:17:21;;;;;;;121.00;40.30;;;1.90;93.00;;;;;;5015930;28;20049;-50
2020/12/10 08:19:55;;;;;;;127.10;42.63;;;1.80;93.10;;;;;;5013856;28;20042;-49
2020/12/10 08:22:23;;;;;;;110.15;39.30;;;1.90;93.30;;;;;;5021158;28;20174;-49
2020/12/10 08:25:15;;;;;;;122.47;41.63;;;1.90;93.20;;;;;;5008097;28;20422;-49
2020/12/10 08:27:40;;;;;;;117.37;41.27;;;1.80;93.10;;;;;;5021759;28;20065;-49
2020/12/10 08:30:08;;;;;;;107.63;38.00;;;1.90;93.20;;;;;;5019776;28;20104;-48
2020/12/10 08:32:35;;;;;;;111.45;39.33;;;1.90;93.00;;;;;;5016142;28;20042;-51
2020/12/10 08:35:21;;;;;;;124.47;40.20;;;2.00;92.70;;;;;;4996199;28;21600;-49
2020/12/10 08:38:07;;;;;;;127.47;43.03;;;1.90;92.70;;;;;;4996698;28;20191;-50
2020/12/10 08:40:33;;;;;;;133.00;45.78;;;1.90;93.00;;;;;;5011372;28;20085;-52
2020/12/10 08:43:11;;;;;;;127.90;42.63;;;1.80;93.00;;;;;;5019411;28;20045;-48
2020/12/10 08:45:44;;;;;;;118.32;39.70;;;1.80;93.20;;;;;;5013969;28;20103;-52
2020/12/10 08:48:17;;;;;;;117.55;39.83;;;1.90;93.20;;;;;;5022124;28;20052;-49
2020/12/10 08:51:12;;;;;;;113.72;40.13;;;1.90;93.00;;;;;;5026210;28;20056;-49
2020/12/10 08:53:58;;;;;;;120.50;40.65;;;2.00;92.80;;;;;;4993286;28;20183;-49
2020/12/10 08:56:32;;;;;;;118.60;40.92;;;1.90;92.80;;;;;;5022183;28;20064;-51
2020/12/10 08:59:18;;;;;;;124.90;39.30;;;1.90;93.00;;;;;;5004627;28;20041;-50
2020/12/10 09:01:53;;;;;;;121.38;39.30;;;2.00;93.00;;;;;;5022128;28;20037;-51
2020/12/10 09:04:19;;;;;;;128.25;39.10;;;1.90;92.70;;;;;;5024409;28;20046;-49
2020/12/10 09:06:45;;;;;;;123.18;40.42;;;1.90;92.70;;;;;;5020626;28;20041;-50
2020/12/10 09:09:10;;;;;;;113.35;37.58;;;1.90;92.80;;;;;;5030810;28;20128;-49
2020/12/10 09:11:36;;;;;;;122.47;39.70;;;1.80;93.00;;;;;;5021977;28;20038;-49
2020/12/10 09:14:02;;;;;;;118.97;39.38;;;1.90;93.00;;;;;;5013768;28;20049;-52
2020/12/10 09:16:47;;;;;;;110.82;38.50;;;1.90;92.90;;;;;;5015779;28;20057;-48
2020/12/10 09:19:13;;;;;;;120.90;39.22;;;1.90;93.00;;;;;;5019636;28;20041;-49
2020/12/10 09:21:59;;;;;;;119.15;39.97;;;1.90;93.00;;;;;;4999225;28;20129;-48
2020/12/10 09:24:24;;;;;;;129.32;42.67;;;1.90;92.80;;;;;;5018032;28;20133;-49
2020/12/10 09:26:50;;;;;;;130.18;41.35;;;1.90;92.80;;;;;;5023032;28;20049;-48
2020/12/10 09:29:16;;;;;;;132.95;41.42;;;2.00;92.40;;;;;;5029558;28;20038;-50
2020/12/10 09:31:41;;;;;;;119.78;38.97;;;2.00;92.70;;;;;;5033545;28;20033;-49
2020/12/10 09:34:07;;;;;;;116.68;38.05;;;2.00;92.80;;;;;;5027394;28;20125;-48
2020/12/10 09:36:32;;;;;;;126.22;40.47;;;2.00;92.80;;;;;;5020203;28;20537;-49
2020/12/10 09:38:58;;;;;;;135.95;39.80;;;2.00;92.70;;;;;;5020517;28;20038;-50
2020/12/10 09:41:24;;;;;;;126.50;41.25;;;1.90;92.70;;;;;;5014234;28;20046;-49
2020/12/10 09:43:49;;;;;;;125.03;38.38;;;1.90;92.90;;;;;;5020445;28;20044;-48
2020/12/10 09:46:15;;;;;;;112.45;38.78;;;1.90;92.90;;;;;;5003681;28;20049;-48
2020/12/10 09:48:41;;;;;;;118.22;38.35;;;2.00;92.50;;;;;;5025227;28;20061;-49
2020/12/10 09:51:32;;;;;;;123.85;37.53;;;2.00;92.50;;;;;;5006452;28;20434;-48
2020/12/10 09:54:52;;;;;;;131.20;41.22;;;2.00;92.50;;;;;;5011468;28;20102;-49
2020/12/10 09:57:22;;;;;;;119.40;39.15;;;1.90;92.60;;;;;;5012752;28;20054;-48
2020/12/10 09:59:48;;;;;;;119.75;40.47;;;1.90;92.90;;;;;;5020168;28;20538;-49
2020/12/10 10:02:17;;;;;;;111.45;39.10;;;2.00;92.60;;;;;;5021078;28;20073;-49
2020/12/10 10:04:42;;;;;;;119.72;39.28;;;2.00;92.60;;;;;;5028067;28;20041;-51
2020/12/10 10:07:08;;;;;;;130.40;39.08;;;1.90;92.70;;;;;;5025420;28;20046;-49
2020/12/10 10:09:35;;;;;;;105.30;34.95;;;1.90;92.70;;;;;;5022970;28;20029;-48
2020/12/10 10:12:00;;;;;;;113.70;37.42;;;2.00;92.50;;;;;;5018568;28;20132;-51
2020/12/10 10:14:48;;;;;;;112.25;35.25;;;2.00;92.50;;;;;;5005557;28;20077;-48
2020/12/10 10:17:13;;;;;;;103.82;34.75;;;2.00;92.60;;;;;;5021960;28;20070;-48
2020/12/10 10:19:39;;;;;;;104.50;36.58;;;2.00;92.70;;;;;;5014128;28;20117;-54
2020/12/10 10:22:05;;;;;;;109.78;35.90;;;2.00;92.60;;;;;;5011975;28;20101;-51
2020/12/10 10:24:32;;;;;;;117.20;38.17;;;2.00;92.70;;;;;;5024994;28;20037;-52
2020/12/10 10:27:18;;;;;;;110.10;37.72;;;2.00;92.80;;;;;;5005086;28;20564;-51
2020/12/10 10:29:43;;;;;;;112.70;37.33;;;2.00;93.00;;;;;;5028650;28;20048;-51
2020/12/10 10:32:09;;;;;;;128.93;40.03;;;2.00;93.00;;;;;;5021063;28;20478;-49
2020/12/10 10:34:36;;;;;;;123.40;39.78;;;2.10;92.80;;;;;;5022957;28;20061;-48
2020/12/10 10:37:02;;;;;;;126.47;39.28;;;2.00;92.80;;;;;;5021168;28;20442;-50
2020/12/10 10:39:48;;;;;;;114.68;36.10;;;2.00;93.00;;;;;;5004202;28;20124;-53
2020/12/10 10:42:34;;;;;;;122.90;40.13;;;2.20;92.60;;;;;;4996657;28;20054;-51
2020/12/10 10:44:59;;;;;;;126.95;40.03;;;2.10;92.60;;;;;;5018848;28;20040;-48
2020/12/10 10:47:45;;;;;;;130.45;39.97;;;2.10;92.90;;;;;;5013417;28;20052;-50
2020/12/10 10:50:10;;;;;;;130.57;41.88;;;2.10;92.80;;;;;;5020943;28;20129;-51
2020/12/10 10:52:36;;;;;;;136.13;42.33;;;2.10;92.80;;;;;;5021737;28;20045;-51
2020/12/10 10:55:02;;;;;;;120.68;40.95;;;2.10;93.20;;;;;;5023395;28;20057;-49
2020/12/10 10:57:28;;;;;;;106.00;36.08;;;2.20;92.90;;;;;;5012617;28;20063;-49
2020/12/10 10:59:53;;;;;;;117.75;37.33;;;2.20;93.00;;;;;;5017156;28;20450;-51
2020/12/10 11:02:19;;;;;;;103.13;36.38;;;2.20;92.80;;;;;;5014055;28;20046;-49
2020/12/10 11:04:44;;;;;;;114.60;37.08;;;2.20;92.90;;;;;;5021651;28;20034;-50
2020/12/10 11:07:30;;;;;;;107.28;36.92;;;2.20;92.70;;;;;;5003322;28;20580;-51
2020/12/10 11:09:56;;;;;;;128.05;39.45;;;2.20;92.70;;;;;;5019358;28;20030;-49
2020/12/10 11:12:21;;;;;;;112.90;38.60;;;2.20;92.70;;;;;;5017698;28;20052;-50
2020/12/10 11:15:07;;;;;;;117.15;40.03;;;2.20;92.80;;;;;;5005004;28;20041;-50
2020/12/10 11:17:53;;;;;;;126.05;39.15;;;2.20;92.80;;;;;;5002283;28;20050;-52
2020/12/10 11:20:18;;;;;;;122.70;39.28;;;2.20;92.80;;;;;;5020459;28;20060;-49
2020/12/10 11:22:44;;;;;;;120.90;39.08;;;2.20;92.80;;;;;;5026799;28;20379;-49
2020/12/10 11:25:30;;;;;;;128.73;40.33;;;2.30;92.80;;;;;;5017710;28;20045;-49
2020/12/10 11:27:55;;;;;;;125.53;38.55;;;2.20;92.50;;;;;;5029852;28;20053;-49
2020/12/10 11:30:21;;;;;;;132.20;42.00;;;2.20;92.80;;;;;;5017352;28;20099;-52
2020/12/10 11:32:47;;;;;;;132.52;40.53;;;2.20;92.90;;;;;;5022785;28;20064;-49
2020/12/10 11:35:12;;;;;;;141.40;44.45;;;2.30;92.70;;;;;;5013250;28;20041;-49
2020/12/10 11:37:58;;;;;;;127.93;42.90;;;2.20;92.70;;;;;;5003549;28;20103;-49
2020/12/10 11:40:24;;;;;;;133.23;42.50;;;2.30;92.70;;;;;;5013022;28;20045;-50
2020/12/10 11:42:51;;;;;;;135.02;44.08;;;2.30;92.60;;;;;;5016532;28;20059;-49
2020/12/10 11:45:18;;;;;;;114.35;41.03;;;2.30;92.70;;;;;;5018404;28;20038;-50
2020/12/10 11:47:46;;;;;;;117.95;43.13;;;2.30;92.70;;;;;;5024090;28;20069;-51
2020/12/10 11:50:33;;;;;;;111.97;40.70;;;2.20;92.70;;;;;;5003535;28;20100;-50
2020/12/10 11:52:59;;;;;;;113.78;40.92;;;2.20;92.70;;;;;;5016309;28;20121;-50
2020/12/10 11:55:24;;;;;;;112.03;40.17;;;2.20;92.80;;;;;;5017981;28;20053;-51
2020/12/10 11:57:50;;;;;;;121.70;43.30;;;2.30;92.50;;;;;;5018021;28;20042;-50
2020/12/10 12:00:16;;;;;;;120.53;42.42;;;2.30;92.30;;;;;;5018178;28;20049;-50
2020/12/10 12:02:42;;;;;;;128.35;45.17;;;2.30;92.40;;;;;;5018184;28;20501;-51
2020/12/10 12:05:09;;;;;;;126.30;43.28;;;2.20;92.40;;;;;;5015900;28;20045;-52
2020/12/10 12:07:39;;;;;;;127.85;43.05;;;2.20;92.40;;;;;;5024444;28;20091;-50
2020/12/10 12:10:06;;;;;;;111.60;39.67;;;2.20;92.50;;;;;;5016065;28;20029;-49
2020/12/10 12:12:37;;;;;;;101.68;37.10;;;2.30;92.10;;;;;;5017859;28;20050;-53
2020/12/10 12:15:04;;;;;;;108.43;37.75;;;2.40;92.00;;;;;;5022152;28;20042;-51
2020/12/10 12:17:29;;;;;;;103.80;37.67;;;2.30;91.90;;;;;;5021530;28;20095;-50
2020/12/10 12:19:55;;;;;;;109.03;38.95;;;2.30;91.90;;;;;;5008962;28;20093;-51
2020/12/10 12:22:41;;;;;;;98.65;37.92;;;2.20;92.10;;;;;;5006524;28;20049;-49
2020/12/10 12:25:28;;;;;;;106.07;38.85;;;2.40;91.60;;;;;;5011500;28;20507;-50
2020/12/10 12:27:54;;;;;;;111.97;41.65;;;2.30;91.70;;;;;;5029672;28;20073;-51
2020/12/10 12:30:20;;;;;;;100.90;38.40;;;2.20;91.70;;;;;;5025090;28;20073;-50
2020/12/10 12:33:05;;;;;;;97.45;37.22;;;2.20;91.90;;;;;;5002382;28;20119;-53
2020/12/10 12:35:31;;;;;;;92.07;35.83;;;2.20;91.60;;;;;;5020329;28;20061;-50
2020/12/10 12:38:17;;;;;;;100.32;40.92;;;2.30;91.50;;;;;;5008264;28;20053;-52
2020/12/10 12:40:45;;;;;;;115.28;42.17;;;2.20;91.60;;;;;;5021107;28;20041;-50
2020/12/10 12:43:30;;;;;;;114.20;44.45;;;2.20;91.90;;;;;;5004091;28;20053;-51
2020/12/10 12:45:56;;;;;;;118.25;42.65;;;2.10;92.10;;;;;;5029543;28;20573;-50
2020/12/10 12:48:21;;;;;;;118.53;43.28;;;2.10;92.20;;;;;;5020190;28;20061;-52
2020/12/10 12:50:47;;;;;;;118.55;44.92;;;2.10;92.20;;;;;;5017510;28;20116;-50
2020/12/10 12:53:14;;;;;;;111.72;41.97;;;2.10;92.40;;;;;;5022452;28;20050;-51
2020/12/10 12:55:39;;;;;;;120.35;43.28;;;2.20;92.60;;;;;;5018602;28;20060;-50
2020/12/10 12:58:25;;;;;;;120.20;43.55;;;2.20;92.60;;;;;;5008605;28;20502;-51